createdAt,value
2018-04-12T00:01:04.368Z,10.20
2018-04-12T00:03:33.709Z,10.10
2018-04-12T00:06:02.345Z,10.10
2018-04-12T00:08:31.728Z,10.10
2018-04-12T00:11:00.308Z,10.10
2018-04-12T00:13:28.936Z,10.20
2018-04-12T00:15:57.493Z,10.10
2018-04-12T00:18:26.829Z,10.20
2018-04-12T00:20:55.445Z,10.20
2018-04-12T00:23:24.051Z,10.20
2018-04-12T00:25:52.633Z,10.20
2018-04-12T00:28:20.977Z,10.30
2018-04-12T00:30:49.590Z,10.30
2018-04-12T00:33:18.197Z,10.30
2018-04-12T00:35:47.545Z,10.40
2018-04-12T00:38:16.143Z,10.40
2018-04-12T00:40:44.741Z,10.40
2018-04-12T00:43:13.354Z,10.50
2018-04-12T00:45:42.728Z,10.40
2018-04-12T00:48:11.268Z,10.40
2018-04-12T00:50:40.644Z,10.40
2018-04-12T00:53:09.976Z,10.30
2018-04-12T00:55:38.569Z,10.30
2018-04-12T00:58:07.186Z,10.20
2018-04-12T01:00:35.778Z,10.20
2018-04-12T01:03:04.082Z,10.20
2018-04-12T01:05:32.790Z,10.20
2018-04-12T01:08:01.374Z,10.20
2018-04-12T01:10:29.973Z,10.20
2018-04-12T01:12:58.546Z,10.20
2018-04-12T01:15:27.154Z,10.20
2018-04-12T01:17:55.705Z,10.20
2018-04-12T01:20:24.109Z,10.20
2018-04-12T01:22:52.716Z,10.20
2018-04-12T01:25:21.272Z,10.10
2018-04-12T01:27:49.858Z,10.10
2018-04-12T01:30:18.458Z,10.10
2018-04-12T01:32:58.119Z,10.00
2018-04-12T01:35:27.310Z,10.10
2018-04-12T01:37:55.887Z,10.10
2018-04-12T01:40:24.277Z,10.20
2018-04-12T01:42:52.858Z,10.20
2018-04-12T01:45:21.450Z,10.30
2018-04-12T01:47:50.825Z,10.40
2018-04-12T01:50:19.418Z,10.30
2018-04-12T01:52:48.037Z,10.30
2018-04-12T01:55:16.645Z,10.40
2018-04-12T01:57:45.282Z,10.30
2018-04-12T02:00:14.724Z,10.40
2018-04-12T02:02:43.304Z,10.40
2018-04-12T02:05:11.895Z,10.40
2018-04-12T02:07:40.527Z,10.40
2018-04-12T02:10:09.110Z,10.40
2018-04-12T02:12:37.707Z,10.40
2018-04-12T02:15:07.078Z,10.40
2018-04-12T02:17:35.673Z,10.40
2018-04-12T02:20:04.229Z,10.40
2018-04-12T02:22:32.625Z,10.40
2018-04-12T02:25:01.212Z,10.40
2018-04-12T02:27:29.794Z,10.40
2018-04-12T02:29:58.191Z,10.40
2018-04-12T02:32:26.777Z,10.50
2018-04-12T02:34:56.150Z,10.50
2018-04-12T02:37:24.739Z,10.50
2018-04-12T02:39:53.329Z,10.50
2018-04-12T02:42:21.900Z,10.50
2018-04-12T02:44:50.481Z,10.50
2018-04-12T02:47:19.085Z,10.50
2018-04-12T02:49:47.655Z,10.50
2018-04-12T02:52:16.241Z,10.60
2018-04-12T02:54:44.826Z,10.50
2018-04-12T02:57:13.090Z,10.50
2018-04-12T02:59:41.713Z,10.50
2018-04-12T03:02:10.327Z,10.50
2018-04-12T03:04:38.922Z,10.40
2018-04-12T03:07:08.521Z,10.40
2018-04-12T03:09:37.833Z,10.50
2018-04-12T03:12:06.413Z,10.50
2018-04-12T03:14:35.013Z,10.50
2018-04-12T03:17:03.589Z,10.50
2018-04-12T03:19:32.157Z,10.50
2018-04-12T03:22:00.736Z,10.50
2018-04-12T03:24:29.339Z,10.60
2018-04-12T03:26:58.127Z,10.60
2018-04-12T03:29:26.695Z,10.60
2018-04-12T03:31:55.316Z,10.60
2018-04-12T03:34:23.891Z,10.60
2018-04-12T03:36:52.469Z,10.60
2018-04-12T03:39:21.069Z,10.60
2018-04-12T03:41:49.637Z,10.60
2018-04-12T03:44:18.257Z,10.70
2018-04-12T03:46:47.621Z,10.70
2018-04-12T03:49:16.316Z,10.70
2018-04-12T03:51:45.073Z,10.70
2018-04-12T03:54:13.675Z,10.70
2018-04-12T03:56:42.289Z,10.70
2018-04-12T03:59:10.863Z,10.70
2018-04-12T04:01:39.492Z,10.80
2018-04-12T04:04:08.106Z,10.70
2018-04-12T04:06:36.704Z,10.70
2018-04-12T04:09:04.675Z,10.70
2018-04-12T04:11:33.257Z,10.70
2018-04-12T04:14:01.825Z,10.70
2018-04-12T04:16:41.701Z,10.60
2018-04-12T04:19:21.450Z,10.60
2018-04-12T04:21:50.960Z,10.60
2018-04-12T04:24:19.651Z,10.60
2018-04-12T04:26:49.037Z,10.70
2018-04-12T04:29:17.614Z,10.60
2018-04-12T04:31:46.223Z,10.70
2018-04-12T04:34:14.826Z,10.60
2018-04-12T04:36:43.413Z,10.70
2018-04-12T04:39:12.008Z,10.60
2018-04-12T04:41:40.593Z,10.70
2018-04-12T04:44:09.183Z,10.70
2018-04-12T04:46:37.980Z,10.70
2018-04-12T04:49:07.335Z,10.70
2018-04-12T04:51:35.894Z,10.70
2018-04-12T04:54:04.488Z,10.70
2018-04-12T04:56:33.095Z,10.70
2018-04-12T04:59:02.470Z,10.70
2018-04-12T05:01:30.833Z,10.70
2018-04-12T05:03:59.685Z,10.70
2018-04-12T05:06:28.201Z,10.80
2018-04-12T05:08:56.621Z,10.80
2018-04-12T05:11:25.993Z,10.80
2018-04-12T05:13:54.591Z,10.80
2018-04-12T05:16:23.192Z,10.90
2018-04-12T05:18:51.803Z,10.90
2018-04-12T05:21:20.413Z,10.90
2018-04-12T05:23:48.766Z,10.90
2018-04-12T05:26:17.372Z,10.90
2018-04-12T05:28:45.982Z,10.90
2018-04-12T05:31:14.557Z,11.00
2018-04-12T05:33:43.144Z,11.00
2018-04-12T05:36:11.771Z,11.10
2018-04-12T05:38:40.429Z,11.30
2018-04-12T05:41:09.789Z,11.70
2018-04-12T05:43:38.372Z,11.70
2018-04-12T05:46:06.978Z,11.90
2018-04-12T05:48:35.537Z,12.00
2018-04-12T05:51:04.132Z,12.10
2018-04-12T05:53:32.717Z,12.10
2018-04-12T05:56:01.302Z,12.20
2018-04-12T05:58:29.701Z,12.30
2018-04-12T06:00:58.369Z,12.40
2018-04-12T06:03:26.993Z,12.50
2018-04-12T06:05:56.358Z,12.80
2018-04-12T06:08:24.965Z,12.80
2018-04-12T06:10:53.597Z,13.00
2018-04-12T06:13:23.100Z,13.20
2018-04-12T06:15:51.694Z,13.20
2018-04-12T06:18:20.310Z,13.40
2018-04-12T06:20:48.885Z,13.40
2018-04-12T06:23:17.289Z,13.50
2018-04-12T06:25:45.870Z,13.60
2018-04-12T06:28:14.459Z,13.60
2018-04-12T06:30:43.965Z,13.80
2018-04-12T06:33:13.302Z,13.80
2018-04-12T06:35:41.892Z,13.80
2018-04-12T06:38:10.482Z,13.90
2018-04-12T06:40:39.077Z,13.90
2018-04-12T06:43:07.702Z,14.00
2018-04-12T06:45:36.880Z,14.30
2018-04-12T06:48:05.221Z,14.20
2018-04-12T06:50:33.789Z,14.30
2018-04-12T06:53:02.406Z,14.50
2018-04-12T06:55:31.009Z,14.50
2018-04-12T06:57:59.597Z,14.70
2018-04-12T07:00:28.210Z,14.70
2018-04-12T07:02:56.791Z,14.80
2018-04-12T07:05:25.423Z,14.70
2018-04-12T07:07:54.063Z,14.80
2018-04-12T07:10:22.639Z,14.90
2018-04-12T07:12:52.013Z,15.00
2018-04-12T07:15:20.573Z,15.00
2018-04-12T07:17:49.159Z,15.10
2018-04-12T07:20:17.782Z,15.10
2018-04-12T07:22:47.145Z,15.10
2018-04-12T07:25:15.721Z,15.10
2018-04-12T07:27:44.486Z,15.20
2018-04-12T07:30:13.094Z,15.40
2018-04-12T07:32:41.705Z,15.70
2018-04-12T07:35:10.282Z,15.80
2018-04-12T07:37:38.666Z,15.90
2018-04-12T07:40:07.255Z,16.10
2018-04-12T07:42:35.859Z,16.20
2018-04-12T07:45:05.248Z,16.40
2018-04-12T07:47:33.827Z,16.40
2018-04-12T07:50:02.408Z,16.60
2018-04-12T07:52:30.961Z,16.60
2018-04-12T07:54:59.557Z,16.70
2018-04-12T07:57:27.947Z,16.80
2018-04-12T07:59:56.514Z,16.80
2018-04-12T08:02:25.096Z,16.90
2018-04-12T08:04:53.688Z,16.90
2018-04-12T08:07:23.122Z,17.00
2018-04-12T08:09:52.481Z,17.00
2018-04-12T08:12:20.836Z,17.00
2018-04-12T08:14:49.209Z,17.10
2018-04-12T08:17:17.788Z,17.20
2018-04-12T08:19:46.181Z,17.30
2018-04-12T08:22:14.782Z,17.50
2018-04-12T08:24:43.378Z,17.40
2018-04-12T08:27:11.990Z,17.40
2018-04-12T08:29:41.373Z,17.50
2018-04-12T08:32:09.944Z,17.40
2018-04-12T08:34:38.600Z,17.40
2018-04-12T08:37:07.319Z,17.50
2018-04-12T08:39:35.905Z,17.70
2018-04-12T08:42:04.504Z,17.90
2018-04-12T08:44:33.848Z,17.90
2018-04-12T08:47:03.193Z,17.80
2018-04-12T08:49:31.639Z,17.80
2018-04-12T08:52:00.984Z,18.30
2018-04-12T08:54:29.595Z,18.30
2018-04-12T08:56:58.375Z,18.50
2018-04-12T08:59:27.725Z,18.70
2018-04-12T09:01:56.281Z,18.70
2018-04-12T09:04:24.889Z,18.90
2018-04-12T09:06:53.519Z,19.10
2018-04-12T09:09:22.837Z,19.40
2018-04-12T09:11:51.437Z,19.40
2018-04-12T09:14:19.980Z,19.30
2018-04-12T09:16:49.338Z,19.60
2018-04-12T09:19:17.892Z,19.60
2018-04-12T09:21:46.482Z,19.70
2018-04-12T09:24:15.081Z,19.80
2018-04-12T09:26:43.666Z,20.20
2018-04-12T09:29:13.835Z,20.10
2018-04-12T09:31:43.292Z,19.70
2018-04-12T09:34:12.825Z,19.90
2018-04-12T09:36:41.492Z,19.90
2018-04-12T09:39:09.819Z,20.30
2018-04-12T09:41:40.163Z,20.50
2018-04-12T09:44:10.456Z,20.50
2018-04-12T09:46:39.092Z,20.70
2018-04-12T09:49:08.663Z,21.00
2018-04-12T09:51:37.113Z,20.70
2018-04-12T09:54:05.400Z,21.00
2018-04-12T09:56:34.000Z,21.10
2018-04-12T09:59:03.468Z,21.60
2018-04-12T10:01:46.691Z,21.50
2018-04-12T10:04:17.173Z,21.70
2018-04-12T10:06:51.136Z,21.70
2018-04-12T10:09:19.545Z,21.70
2018-04-12T10:11:48.961Z,22.00
2018-04-12T10:14:17.534Z,21.90
2018-04-12T10:16:46.997Z,22.10
2018-04-12T10:19:15.591Z,22.10
2018-04-12T10:21:44.309Z,21.70
2018-04-12T10:24:13.597Z,22.50
2018-04-12T10:26:42.169Z,22.50
2018-04-12T10:29:10.783Z,22.80
2018-04-12T10:31:39.137Z,22.20
2018-04-12T10:34:07.864Z,22.20
2018-04-12T10:36:36.441Z,22.50
2018-04-12T10:39:04.217Z,22.60
2018-04-12T10:41:32.815Z,22.60
2018-04-12T10:44:01.339Z,22.20
2018-04-12T10:46:29.953Z,22.50
2018-04-12T10:48:58.529Z,22.70
2018-04-12T10:51:26.950Z,23.40
2018-04-12T10:53:55.589Z,23.60
2018-04-12T10:56:23.969Z,23.70
2018-04-12T10:58:53.086Z,25.10
2018-04-12T11:01:21.696Z,25.00
2018-04-12T11:03:50.299Z,24.70
2018-04-12T11:06:18.908Z,25.70
2018-04-12T11:08:48.277Z,26.90
2018-04-12T11:11:16.871Z,26.90
2018-04-12T11:13:45.412Z,27.00
2018-04-12T11:16:14.006Z,27.80
2018-04-12T11:18:42.589Z,28.20
2018-04-12T11:21:11.179Z,28.90
2018-04-12T11:23:39.812Z,29.60
2018-04-12T11:26:08.443Z,29.70
2018-04-12T11:28:37.102Z,30.50
2018-04-12T11:31:06.569Z,30.70
2018-04-12T11:33:35.161Z,30.20
2018-04-12T11:36:03.770Z,30.10
2018-04-12T11:38:32.336Z,30.50
2018-04-12T11:41:00.933Z,31.20
2018-04-12T11:43:29.482Z,31.50
2018-04-12T11:45:58.049Z,31.20
2018-04-12T11:48:26.684Z,31.30
2018-04-12T11:50:55.237Z,31.10
2018-04-12T11:53:23.828Z,30.50
2018-04-12T11:55:53.253Z,29.30
2018-04-12T11:58:21.839Z,29.20
2018-04-12T12:00:50.425Z,29.30
2018-04-12T12:03:19.005Z,30.30
2018-04-12T12:05:47.597Z,30.80
2018-04-12T12:08:16.165Z,30.80
2018-04-12T12:10:44.751Z,31.10
2018-04-12T12:13:13.319Z,29.90
2018-04-12T12:15:42.632Z,29.70
2018-04-12T12:18:11.271Z,29.70
2018-04-12T12:20:39.882Z,28.70
2018-04-12T12:23:08.462Z,28.10
2018-04-12T12:25:37.070Z,27.50
2018-04-12T12:28:05.638Z,27.20
2018-04-12T12:30:35.005Z,26.40
2018-04-12T12:33:03.602Z,26.40
2018-04-12T12:35:32.177Z,26.50
2018-04-12T12:38:00.774Z,26.60
2018-04-12T12:40:29.326Z,26.10
2018-04-12T12:42:57.980Z,25.60
2018-04-12T12:45:26.590Z,25.10
2018-04-12T12:47:55.185Z,24.90
2018-04-12T12:50:23.766Z,24.80
2018-04-12T12:52:52.321Z,24.90
2018-04-12T12:55:20.890Z,24.80
2018-04-12T12:57:49.460Z,24.60
2018-04-12T13:00:18.582Z,24.30
2018-04-12T13:02:48.037Z,24.30
2018-04-12T13:05:16.624Z,24.30
2018-04-12T13:07:45.197Z,24.20
2018-04-12T13:10:13.796Z,24.30
2018-04-12T13:12:42.363Z,24.40
2018-04-12T13:15:11.007Z,24.50
2018-04-12T13:17:39.556Z,24.50
2018-04-12T13:20:08.996Z,24.50
2018-04-12T13:22:38.346Z,24.50
2018-04-12T13:25:06.961Z,24.50
2018-04-12T13:27:35.337Z,24.60
2018-04-12T13:30:03.604Z,24.80
2018-04-12T13:32:32.170Z,25.10
2018-04-12T13:35:01.777Z,24.80
2018-04-12T13:37:30.393Z,24.70
2018-04-12T13:39:58.818Z,24.50
2018-04-12T13:42:27.419Z,24.10
2018-04-12T13:44:56.048Z,24.10
2018-04-12T13:47:24.641Z,24.10
2018-04-12T13:49:53.195Z,24.10
2018-04-12T13:52:24.438Z,24.10
2018-04-12T13:54:53.813Z,24.40
2018-04-12T13:57:22.631Z,24.30
2018-04-12T13:59:51.246Z,25.20
2018-04-12T14:02:19.812Z,25.60
2018-04-12T14:04:48.441Z,25.30
2018-04-12T14:07:17.169Z,25.30
2018-04-12T14:09:46.750Z,25.00
2018-04-12T14:12:15.383Z,24.90
2018-04-12T14:14:44.103Z,25.10
2018-04-12T14:17:12.769Z,25.40
2018-04-12T14:19:41.492Z,26.30
2018-04-12T14:22:10.049Z,25.70
2018-04-12T14:24:38.682Z,25.30
2018-04-12T14:27:08.027Z,25.30
2018-04-12T14:29:37.547Z,25.30
2018-04-12T14:32:06.246Z,25.00
2018-04-12T14:34:35.662Z,24.50
2018-04-12T14:37:04.276Z,24.50
2018-04-12T14:39:32.844Z,24.30
2018-04-12T14:42:02.036Z,25.20
2018-04-12T14:44:31.400Z,26.20
2018-04-12T14:47:00.178Z,26.10
2018-04-12T14:49:29.181Z,27.70
2018-04-12T14:51:57.753Z,28.20
2018-04-12T14:54:26.333Z,28.50
2018-04-12T14:56:54.961Z,28.00
2018-04-12T14:59:23.562Z,27.10
2018-04-12T15:01:52.186Z,26.50
2018-04-12T15:04:20.780Z,26.20
2018-04-12T15:06:49.185Z,26.40
2018-04-12T15:09:17.763Z,26.20
2018-04-12T15:11:46.375Z,25.70
2018-04-12T15:14:15.757Z,24.90
2018-04-12T15:16:44.599Z,24.90
2018-04-12T15:19:13.239Z,24.60
2018-04-12T15:21:42.561Z,24.10
2018-04-12T15:24:11.929Z,23.90
2018-04-12T15:26:40.587Z,23.90
2018-04-12T15:29:09.173Z,23.70
2018-04-12T15:31:37.837Z,23.60
2018-04-12T15:34:06.404Z,23.50
2018-04-12T15:36:35.475Z,23.70
2018-04-12T15:39:03.664Z,23.70
2018-04-12T15:41:32.287Z,23.70
2018-04-12T15:44:00.961Z,23.70
2018-04-12T15:46:29.551Z,23.60
2018-04-12T15:48:58.193Z,23.50
2018-04-12T15:51:26.829Z,23.30
2018-04-12T15:53:55.394Z,23.20
2018-04-12T15:56:24.002Z,23.00
2018-04-12T15:58:52.401Z,22.90
2018-04-12T16:01:20.809Z,22.80
2018-04-12T16:03:49.555Z,22.80
2018-04-12T16:06:18.233Z,22.50
2018-04-12T16:08:46.821Z,22.50
2018-04-12T16:11:17.470Z,22.40
2018-04-12T16:13:46.096Z,22.40
2018-04-12T16:16:14.634Z,22.40
2018-04-12T16:18:43.224Z,22.40
2018-04-12T16:21:11.638Z,22.40
2018-04-12T16:23:40.269Z,22.40
2018-04-12T16:26:08.689Z,22.40
2018-04-12T16:28:37.289Z,22.40
2018-04-12T16:31:05.938Z,22.40
2018-04-12T16:33:34.540Z,22.40
2018-04-12T16:36:03.913Z,22.40
2018-04-12T16:38:32.509Z,22.40
2018-04-12T16:41:01.106Z,22.40
2018-04-12T16:43:29.749Z,22.40
2018-04-12T16:45:58.366Z,22.30
2018-04-12T16:48:27.033Z,22.30
2018-04-12T16:50:55.467Z,22.20
2018-04-12T16:53:24.087Z,22.10
2018-04-12T16:55:52.574Z,22.00
2018-04-12T16:58:21.241Z,22.00
2018-04-12T17:00:49.900Z,21.90
2018-04-12T17:03:18.519Z,21.70
2018-04-12T17:05:47.116Z,21.70
2018-04-12T17:08:15.726Z,21.50
2018-04-12T17:10:44.297Z,21.40
2018-04-12T17:13:12.894Z,21.30
2018-04-12T17:15:42.237Z,21.30
2018-04-12T17:18:10.815Z,21.20
2018-04-12T17:20:39.392Z,21.20
2018-04-12T17:23:07.976Z,21.20
2018-04-12T17:25:36.591Z,21.10
2018-04-12T17:28:05.205Z,21.00
2018-04-12T17:30:33.729Z,20.90
2018-04-12T17:33:02.338Z,20.80
2018-04-12T17:35:30.930Z,20.60
2018-04-12T17:37:59.369Z,20.40
2018-04-12T17:40:27.985Z,20.20
2018-04-12T17:42:56.551Z,20.10
2018-04-12T17:45:25.347Z,20.00
2018-04-12T17:47:58.633Z,19.90
2018-04-12T17:50:28.020Z,19.50
2018-04-12T17:52:56.581Z,19.40
2018-04-12T17:55:25.989Z,19.10
2018-04-12T17:57:54.593Z,19.10
2018-04-12T18:00:23.171Z,18.90
2018-04-12T18:02:51.737Z,18.70
2018-04-12T18:05:20.297Z,18.50
2018-04-12T18:07:48.910Z,18.30
2018-04-12T18:10:17.302Z,18.10
2018-04-12T18:12:45.921Z,18.00
2018-04-12T18:15:14.560Z,17.80
2018-04-12T18:17:43.898Z,17.60
2018-04-12T18:20:12.515Z,17.60
2018-04-12T18:22:41.154Z,17.50
2018-04-12T18:25:09.738Z,17.40
2018-04-12T18:27:38.357Z,17.30
2018-04-12T18:30:06.936Z,17.30
2018-04-12T18:32:35.555Z,17.30
2018-04-12T18:35:04.374Z,17.30
2018-04-12T18:37:32.955Z,17.30
2018-04-12T18:40:01.596Z,17.20
2018-04-12T18:42:30.163Z,17.10
2018-04-12T18:44:58.790Z,17.10
2018-04-12T18:47:28.185Z,17.10
2018-04-12T18:49:56.830Z,17.00
2018-04-12T18:52:25.601Z,17.00
2018-04-12T18:54:54.029Z,16.90
2018-04-12T18:57:23.459Z,16.70
2018-04-12T18:59:52.056Z,16.70
2018-04-12T19:02:20.668Z,16.70
2018-04-12T19:04:49.307Z,16.60
2018-04-12T19:07:17.908Z,16.60
2018-04-12T19:09:46.515Z,16.60
2018-04-12T19:12:15.129Z,16.60
2018-04-12T19:14:43.742Z,16.70
2018-04-12T19:17:12.386Z,17.20
2018-04-12T19:19:41.804Z,17.20
2018-04-12T19:22:10.501Z,17.30
2018-04-12T19:24:39.873Z,17.10
2018-04-12T19:27:08.491Z,17.10
2018-04-12T19:29:37.881Z,16.90
2018-04-12T19:32:06.544Z,16.90
2018-04-12T19:34:35.171Z,16.80
2018-04-12T19:37:03.749Z,16.70
2018-04-12T19:39:32.374Z,16.60
2018-04-12T19:42:00.971Z,16.40
2018-04-12T19:44:29.461Z,16.30
2018-04-12T19:46:58.095Z,16.20
2018-04-12T19:49:26.754Z,16.10
2018-04-12T19:51:55.550Z,16.00
2018-04-12T19:54:24.318Z,15.80
2018-04-12T19:56:52.922Z,15.70
2018-04-12T19:59:22.277Z,15.40
2018-04-12T20:01:50.870Z,15.40
2018-04-12T20:04:21.917Z,15.20
2018-04-12T20:06:50.537Z,15.20
2018-04-12T20:09:19.861Z,15.00
2018-04-12T20:11:49.128Z,14.90
2018-04-12T20:14:17.694Z,14.80
2018-04-12T20:16:46.304Z,14.60
2018-04-12T20:19:14.925Z,14.50
2018-04-12T20:21:43.502Z,14.30
2018-04-12T20:24:12.089Z,14.20
2018-04-12T20:26:40.804Z,14.20
2018-04-12T20:29:09.487Z,14.20
2018-04-12T20:31:38.093Z,14.10
2018-04-12T20:34:06.721Z,14.00
2018-04-12T20:36:35.289Z,13.90
2018-04-12T20:39:03.433Z,13.90
2018-04-12T20:41:32.058Z,13.90
2018-04-12T20:44:00.680Z,13.70
2018-04-12T20:46:29.266Z,13.70
2018-04-12T20:48:57.874Z,13.60
2018-04-12T20:51:27.220Z,13.50
2018-04-12T20:53:55.837Z,13.50
2018-04-12T20:56:24.442Z,13.40
2018-04-12T20:58:53.026Z,13.40
2018-04-12T21:01:22.389Z,13.30
2018-04-12T21:03:50.953Z,13.30
2018-04-12T21:06:19.540Z,13.20
2018-04-12T21:08:48.173Z,13.10
2018-04-12T21:11:32.516Z,13.00
2018-04-12T21:14:01.126Z,12.80
2018-04-12T21:16:32.937Z,12.80
2018-04-12T21:19:01.518Z,12.80
2018-04-12T21:21:33.093Z,12.70
2018-04-12T21:24:01.677Z,12.70
2018-04-12T21:26:30.261Z,12.80
2018-04-12T21:29:11.051Z,12.70
2018-04-12T21:31:45.282Z,12.70
2018-04-12T21:34:13.868Z,12.60
2018-04-12T21:36:44.260Z,12.50
2018-04-12T21:39:12.850Z,12.50
2018-04-12T21:41:41.430Z,12.50
2018-04-12T21:44:09.992Z,12.50
2018-04-12T21:46:38.608Z,12.50
2018-04-12T21:49:07.176Z,12.50
2018-04-12T21:51:35.738Z,12.40
2018-04-12T21:54:04.341Z,12.30
2018-04-12T21:56:32.933Z,12.20
2018-04-12T21:59:01.507Z,12.20
2018-04-12T22:01:30.113Z,12.10
2018-04-12T22:04:00.710Z,12.00
2018-04-12T22:06:29.417Z,11.90
2018-04-12T22:08:58.014Z,11.80
2018-04-12T22:11:26.629Z,11.70
2018-04-12T22:13:55.215Z,11.70
2018-04-12T22:16:23.628Z,11.60
2018-04-12T22:18:52.237Z,11.60
2018-04-12T22:21:20.869Z,11.50
2018-04-12T22:23:49.544Z,11.50
2018-04-12T22:26:18.195Z,11.50
2018-04-12T22:28:46.885Z,11.40
2018-04-12T22:31:15.551Z,11.40
2018-04-12T22:33:44.150Z,11.40
2018-04-12T22:36:12.819Z,11.40
2018-04-12T22:38:41.377Z,11.30
2018-04-12T22:41:10.013Z,11.30
2018-04-12T22:43:39.410Z,11.00
2018-04-12T22:46:07.963Z,11.00
2018-04-12T22:48:36.565Z,11.00
2018-04-12T22:51:04.541Z,11.00
2018-04-12T22:53:33.133Z,11.00
2018-04-12T22:56:01.719Z,11.10
2018-04-12T22:58:30.297Z,11.00
2018-04-12T23:00:58.878Z,11.00
2018-04-12T23:03:27.442Z,11.00
2018-04-12T23:05:56.057Z,10.90
2018-04-12T23:08:24.672Z,10.90
2018-04-12T23:10:53.267Z,11.00
2018-04-12T23:13:21.888Z,10.90
2018-04-12T23:15:50.479Z,10.90
2018-04-12T23:18:19.071Z,10.90
2018-04-12T23:20:48.440Z,10.80
2018-04-12T23:23:17.021Z,10.80
2018-04-12T23:25:45.606Z,10.80
2018-04-12T23:28:14.181Z,10.80
2018-04-12T23:30:42.769Z,10.70
2018-04-12T23:33:11.367Z,10.70
2018-04-12T23:35:39.937Z,10.60
2018-04-12T23:38:08.519Z,10.60
2018-04-12T23:40:37.849Z,10.50
2018-04-12T23:43:06.453Z,10.50
2018-04-12T23:45:35.805Z,10.50
2018-04-12T23:48:04.365Z,10.50
2018-04-12T23:50:32.953Z,10.50
2018-04-12T23:53:01.533Z,10.50
2018-04-12T23:55:30.124Z,10.50
2018-04-12T23:57:58.516Z,10.50
